Time;durP1;ratioP1;P1;durP2;ratioP2;P2;SDS_P1;SDS_P2;PMS_P1;PMS_P2;Temp;Humidity;BMP_temperature;BMP_pressure;BME280_temperature;BME280_humidity;BME280_pressure;Samples;Min_cycle;Max_cycle;Signal;HPM_P1;HPM_P2
2023/11/15 00:02:07;;;;;;;3.80;0.70;;;;;;;-145.69;65.46;52295.84;5119742;27;20197;-82
2023/11/15 00:04:34;;;;;;;1.33;0.77;;;;;;;-145.69;65.70;52309.72;5119224;27;20197;-81
2023/11/15 00:07:00;;;;;;;1.00;0.70;;;;;;;-145.69;66.24;52313.69;5119150;27;20703;-80
2023/11/15 00:09:29;;;;;;;2.77;0.73;;;;;;;-145.69;66.16;52325.56;5119669;28;20679;-81
2023/11/15 00:11:56;;;;;;;3.03;0.60;;;;;;;-145.69;66.43;52283.97;5119697;28;20228;-81
2023/11/15 00:14:24;;;;;;;1.70;0.67;;;;;;;-145.69;66.36;52291.91;5119643;28;20242;-81
2023/11/15 00:16:50;;;;;;;0.57;0.50;;;;;;;-145.69;66.56;52297.84;5119838;27;20205;-81
2023/11/15 00:19:17;;;;;;;0.87;0.70;;;;;;;-145.69;66.72;52303.78;5119867;28;20197;-82
2023/11/15 00:21:44;;;;;;;5.27;0.83;;;;;;;-145.69;67.25;52283.97;5119331;28;20233;-81
2023/11/15 00:24:11;;;;;;;5.80;0.87;;;;;;;-145.69;66.78;52303.78;5118842;28;20656;-81
2023/11/15 00:26:37;;;;;;;2.95;0.70;;;;;;;-145.69;67.61;52299.81;5118846;27;20434;-81
2023/11/15 00:29:04;;;;;;;1.43;0.50;;;;;;;-145.69;67.02;52283.97;5119412;28;20205;-81
2023/11/15 00:31:32;;;;;;;1.83;0.90;;;;;;;-145.69;67.63;52301.81;5119449;28;20306;-81
2023/11/15 00:33:59;;;;;;;0.70;0.60;;;;;;;-145.69;66.93;52337.44;5116027;28;20225;-82
2023/11/15 00:36:25;;;;;;;1.13;0.73;;;;;;;-145.69;68.05;52282.00;5116464;28;20664;-81
2023/11/15 00:38:52;;;;;;;1.70;0.70;;;;;;;-145.69;68.48;52293.88;5115072;28;20458;-80
2023/11/15 00:41:19;;;;;;;1.37;0.87;;;;;;;-145.69;67.87;52321.59;5115677;28;20721;-81
2023/11/15 00:43:45;;;;;;;2.47;0.70;;;;;;;-145.69;67.65;52297.84;5115829;28;20776;-80
2023/11/15 00:46:15;;;;;;;1.77;0.80;;;;;;;-145.69;67.87;52305.75;5115350;28;20640;-81
2023/11/15 00:48:43;;;;;;;0.53;0.50;;;;;;;-145.69;67.61;52301.81;5115763;28;20247;-81
2023/11/15 00:51:10;;;;;;;0.70;0.50;;;;;;;-145.69;67.32;52289.91;5115767;28;20205;-80
2023/11/15 00:53:37;;;;;;;2.53;0.57;;;;;;;-145.69;67.42;52303.78;5115679;28;20246;-80
2023/11/15 00:56:04;;;;;;;0.50;0.50;;;;;;;-145.69;67.53;52319.63;5115806;28;20208;-80
2023/11/15 00:58:31;;;;;;;2.90;0.60;;;;;;;-145.69;67.52;52276.06;5115820;28;20561;-80
2023/11/15 01:00:59;;;;;;;4.63;0.60;;;;;;;-145.69;67.75;52329.53;5115718;28;20229;-80
2023/11/15 01:03:26;;;;;;;0.67;0.50;;;;;;;-145.69;67.78;52313.69;5115879;28;20583;-80
2023/11/15 01:05:55;;;;;;;1.80;0.77;;;;;;;-145.69;67.26;52345.38;5115684;28;20197;-79
2023/11/15 01:08:23;;;;;;;2.57;0.70;;;;;;;-145.69;67.45;52297.84;5115282;28;20282;-79
2023/11/15 01:10:49;;;;;;;1.30;0.70;;;;;;;-145.69;67.31;52357.25;5101694;28;20237;-80
2023/11/15 01:13:16;;;;;;;1.23;0.60;;;;;;;-145.69;67.37;52353.28;5094936;28;20204;-80
2023/11/15 01:15:43;;;;;;;2.50;0.70;;;;;;;-145.69;67.43;52341.41;5110405;28;20194;-80
2023/11/15 01:18:09;;;;;;;0.80;0.50;;;;;;;-145.69;68.13;52321.59;5115412;28;20567;-79
2023/11/15 01:20:36;;;;;;;1.07;0.50;;;;;;;-145.69;68.12;52341.41;5115096;28;20742;-79
2023/11/15 01:23:06;;;;;;;1.13;0.53;;;;;;;-145.69;67.77;52295.84;5115394;28;20198;-80
2023/11/15 01:25:32;;;;;;;1.53;0.50;;;;;;;-145.69;67.32;52289.91;5115460;28;20193;-79
2023/11/15 01:28:00;;;;;;;0.90;0.53;;;;;;;-145.69;67.48;52345.38;5115101;28;20288;-80
2023/11/15 01:30:26;;;;;;;1.20;0.60;;;;;;;-145.69;67.68;52317.66;5115183;28;20568;-80
2023/11/15 01:32:53;;;;;;;1.37;0.70;;;;;;;-145.69;67.32;52289.91;5114593;28;20190;-80
2023/11/15 01:35:20;;;;;;;1.60;0.63;;;;;;;-145.69;67.58;52285.97;5114088;28;20660;-80
2023/11/15 01:37:46;;;;;;;2.10;0.77;;;;;;;-145.69;68.20;52291.91;5114657;28;20201;-80
2023/11/15 01:40:15;;;;;;;0.60;0.60;;;;;;;-145.69;67.87;52323.59;5114846;28;20822;-79
2023/11/15 01:42:42;;;;;;;2.10;0.70;;;;;;;-145.69;67.35;52309.72;5115135;28;20204;-80
2023/11/15 01:45:09;;;;;;;0.53;0.50;;;;;;;-145.69;67.61;52335.47;5114863;28;20546;-80
2023/11/15 01:47:36;;;;;;;1.13;0.60;;;;;;;-145.69;67.80;52319.63;5115087;28;20193;-80
2023/11/15 01:50:05;;;;;;;0.80;0.77;;;;;;;-145.69;68.09;52349.31;5114678;28;20193;-79
2023/11/15 01:52:31;;;;;;;1.90;0.80;;;;;;;-145.69;67.91;52325.56;5114794;28;20254;-80
2023/11/15 01:54:59;;;;;;;2.17;0.80;;;;;;;-145.69;68.13;52295.84;5114639;28;20285;-81
2023/11/15 01:57:27;;;;;;;1.67;0.77;;;;;;;-145.69;67.78;52321.59;5114653;28;20236;-79
2023/11/15 01:59:55;;;;;;;1.87;0.70;;;;;;;-145.69;67.39;52285.97;5114379;28;20205;-80
2023/11/15 02:02:21;;;;;;;3.13;1.07;;;;;;;-145.69;67.72;52319.63;5114444;28;20221;-81
2023/11/15 02:04:48;;;;;;;3.88;0.88;;;;;;;-145.69;69.08;52315.66;5113427;27;20427;-80
2023/11/15 02:07:14;;;;;;;2.60;0.73;;;;;;;-145.69;67.87;52295.84;5113257;28;20704;-81
2023/11/15 02:09:41;;;;;;;3.47;0.90;;;;;;;-145.69;67.50;52317.66;5114507;28;20200;-80
2023/11/15 02:12:09;;;;;;;5.20;0.80;;;;;;;-145.69;67.72;52291.91;5114374;28;20606;-80
2023/11/15 02:14:37;;;;;;;5.93;0.80;;;;;;;-145.69;67.35;52285.97;5114363;28;20546;-80
2023/11/15 02:17:04;;;;;;;2.20;0.70;;;;;;;-145.69;66.81;52341.41;5114279;28;20281;-80
2023/11/15 02:19:31;;;;;;;1.77;0.87;;;;;;;-145.69;67.22;52307.75;5114215;28;20193;-79
2023/11/15 02:21:57;;;;;;;5.50;1.03;;;;;;;-145.69;67.08;52309.72;5114051;28;20307;-80
2023/11/15 02:24:25;;;;;;;0.87;0.70;;;;;;;-145.69;66.17;52321.59;5114305;28;20197;-80
2023/11/15 02:26:52;;;;;;;1.63;0.77;;;;;;;-145.69;66.08;52325.56;5114177;28;20675;-80
2023/11/15 02:29:18;;;;;;;2.80;0.90;;;;;;;-145.69;66.06;52349.31;5113200;28;20660;-80
2023/11/15 02:31:45;;;;;;;3.53;0.90;;;;;;;-145.69;65.95;52285.97;5112934;28;20208;-80
2023/11/15 02:34:12;;;;;;;2.00;0.80;;;;;;;-145.69;65.71;52297.84;5113610;28;20228;-80
2023/11/15 02:36:38;;;;;;;2.50;0.73;;;;;;;-145.69;65.83;52325.56;5113866;28;20205;-81
2023/11/15 02:39:06;;;;;;;2.63;0.80;;;;;;;-145.69;65.96;52276.06;5113959;28;20209;-80
2023/11/15 02:41:34;;;;;;;2.20;0.83;;;;;;;-145.69;65.76;52323.59;5113846;28;20228;-80
2023/11/15 02:44:00;;;;;;;3.20;1.20;;;;;;;-145.69;65.98;52297.84;5112725;28;20190;-79
2023/11/15 02:46:26;;;;;;;4.10;1.00;;;;;;;-145.69;66.06;52325.56;5113939;28;20205;-80
2023/11/15 02:48:53;;;;;;;3.17;1.00;;;;;;;-145.69;65.88;52323.59;5113626;28;20208;-80
2023/11/15 02:51:20;;;;;;;1.63;0.70;;;;;;;-145.69;65.43;52289.91;5113794;28;20198;-82
2023/11/15 02:53:46;;;;;;;2.70;1.10;;;;;;;-145.69;65.59;52331.50;5113473;28;20200;-80
2023/11/15 02:56:12;;;;;;;2.67;1.10;;;;;;;-145.69;65.75;52349.31;5112912;28;20189;-80
2023/11/15 02:58:40;;;;;;;3.87;1.00;;;;;;;-145.69;65.11;52289.91;5113559;28;20201;-80
2023/11/15 03:01:07;;;;;;;7.23;0.80;;;;;;;-145.69;65.90;52276.06;5113313;28;20232;-80
2023/11/15 03:03:35;;;;;;;3.90;0.77;;;;;;;-145.69;65.71;52293.88;5113183;28;20202;-80
2023/11/15 03:06:01;;;;;;;3.90;0.90;;;;;;;-145.69;65.58;52297.84;5113490;28;20282;-80
2023/11/15 03:08:28;;;;;;;6.30;0.90;;;;;;;-145.69;65.73;52289.91;5113047;28;20229;-81
2023/11/15 03:10:54;;;;;;;1.70;0.97;;;;;;;-145.69;65.81;52297.84;5113484;28;20197;-80
2023/11/15 03:13:21;;;;;;;2.10;0.77;;;;;;;-145.69;66.29;52333.47;5113406;28;20197;-80
2023/11/15 03:15:50;;;;;;;3.10;0.70;;;;;;;-145.69;66.18;52307.75;5113168;28;20212;-79
2023/11/15 03:18:16;;;;;;;2.57;0.90;;;;;;;-145.69;66.12;52325.56;5094879;28;20711;-80
2023/11/15 03:20:43;;;;;;;6.33;0.80;;;;;;;-145.69;66.09;52289.91;5093107;28;20210;-80
2023/11/15 03:23:10;;;;;;;2.50;0.90;;;;;;;-145.69;65.88;52301.81;5095160;28;20198;-80
2023/11/15 03:25:37;;;;;;;2.73;0.87;;;;;;;-145.69;66.27;52268.13;5113141;28;20202;-81
2023/11/15 03:28:05;;;;;;;2.73;0.83;;;;;;;-145.69;65.62;52317.66;5112650;28;20201;-80
2023/11/15 03:30:32;;;;;;;2.07;0.60;;;;;;;-145.69;66.30;52276.06;5112807;28;20197;-81
2023/11/15 03:32:59;;;;;;;2.00;0.70;;;;;;;-145.69;66.03;52309.72;5112908;28;20204;-81
2023/11/15 03:35:26;;;;;;;4.60;0.90;;;;;;;-145.69;65.82;52315.66;5113385;28;20197;-80
2023/11/15 03:37:53;;;;;;;4.67;1.00;;;;;;;-145.69;65.93;52313.69;5112968;28;20198;-80
2023/11/15 03:40:20;;;;;;;4.57;0.70;;;;;;;-145.69;65.92;52305.75;5113220;28;20212;-80
2023/11/15 03:42:46;;;;;;;3.50;0.90;;;;;;;-145.69;65.48;52301.81;5113134;28;20278;-80
2023/11/15 03:45:14;;;;;;;2.83;1.10;;;;;;;-145.69;64.50;52311.69;5112819;28;20198;-80
2023/11/15 03:47:41;;;;;;;1.77;0.80;;;;;;;-145.69;64.68;52289.91;5113444;28;20208;-80
2023/11/15 03:50:11;;;;;;;3.53;1.07;;;;;;;-145.69;64.34;52262.19;5113057;28;20201;-81
2023/11/15 03:52:38;;;;;;;2.27;0.90;;;;;;;-145.69;64.38;52301.81;5113252;28;20318;-81
2023/11/15 03:55:05;;;;;;;1.77;0.80;;;;;;;-145.69;64.66;52341.41;5112675;28;20194;-80
2023/11/15 03:57:33;;;;;;;3.20;0.87;;;;;;;-145.69;64.36;52289.91;5112720;28;20206;-81
2023/11/15 04:00:00;;;;;;;1.87;0.63;;;;;;;-145.69;64.83;52293.88;5112906;28;20234;-79
2023/11/15 04:02:27;;;;;;;4.43;0.80;;;;;;;-145.69;64.84;52337.44;5113109;28;20229;-80
2023/11/15 04:04:53;;;;;;;2.27;0.87;;;;;;;-145.69;64.99;52319.63;5112990;28;20201;-80
2023/11/15 04:07:21;;;;;;;2.20;0.90;;;;;;;-145.69;64.85;52293.88;5112497;28;20228;-79
2023/11/15 04:09:49;;;;;;;2.10;0.90;;;;;;;-145.69;64.80;52301.81;5115636;28;20236;-79
2023/11/15 04:12:16;;;;;;;2.80;0.70;;;;;;;-145.69;64.24;52276.06;5116631;28;20207;-79
2023/11/15 04:14:42;;;;;;;2.80;0.87;;;;;;;-145.69;64.06;52325.56;5116620;28;20197;-80
2023/11/15 04:17:09;;;;;;;3.13;0.83;;;;;;;-145.69;63.79;52309.72;5116675;28;20561;-79
2023/11/15 04:19:35;;;;;;;2.83;0.90;;;;;;;-145.69;63.76;52276.06;5116422;28;20204;-79
2023/11/15 04:22:02;;;;;;;0.93;0.70;;;;;;;-145.69;63.64;52313.69;5116205;28;20316;-80
2023/11/15 04:24:29;;;;;;;4.82;1.02;;;;;;;-145.69;63.96;52305.75;5115882;28;20438;-80
2023/11/15 04:26:57;;;;;;;1.70;0.80;;;;;;;-145.69;63.74;52283.97;5116363;28;20197;-80
2023/11/15 04:29:24;;;;;;;0.90;0.70;;;;;;;-145.69;64.09;52285.97;5116622;28;20197;-80
2023/11/15 04:31:51;;;;;;;3.47;1.10;;;;;;;-145.69;64.05;52291.91;5116533;28;20317;-80
2023/11/15 04:34:17;;;;;;;1.80;0.97;;;;;;;-145.69;63.91;52295.84;5116337;28;20201;-80
2023/11/15 04:36:44;;;;;;;2.33;0.60;;;;;;;-145.69;63.64;52301.81;5116343;28;20197;-79
2023/11/15 04:39:10;;;;;;;4.57;0.80;;;;;;;-145.69;63.61;52309.72;5116128;28;20204;-79
2023/11/15 04:41:38;;;;;;;2.20;0.60;;;;;;;-145.69;63.76;52278.03;5115958;28;20225;-80
2023/11/15 04:44:05;;;;;;;3.23;0.80;;;;;;;-145.69;63.94;52291.91;5115703;28;20197;-80
2023/11/15 04:46:34;;;;;;;2.63;0.70;;;;;;;-145.69;63.04;52321.59;5115986;28;20194;-79
2023/11/15 04:49:00;;;;;;;3.43;0.70;;;;;;;-145.69;63.12;52305.75;5115809;28;20212;-79
2023/11/15 04:51:27;;;;;;;1.77;0.73;;;;;;;-145.69;62.72;52303.78;5115981;28;20283;-79
2023/11/15 04:53:53;;;;;;;3.97;0.80;;;;;;;-145.69;63.00;52305.75;5115121;28;20190;-80
2023/11/15 04:56:22;;;;;;;2.60;0.60;;;;;;;-145.69;62.84;52299.81;5115939;28;20194;-79
2023/11/15 04:58:50;;;;;;;2.83;0.70;;;;;;;-145.69;63.03;52272.09;5115519;28;20198;-80
2023/11/15 05:01:17;;;;;;;1.43;0.53;;;;;;;-145.69;62.65;52297.84;5115707;28;20198;-79
2023/11/15 05:03:43;;;;;;;1.40;0.70;;;;;;;-145.69;63.21;52307.75;5115982;28;20201;-79
2023/11/15 05:06:10;;;;;;;2.53;0.60;;;;;;;-145.69;63.26;52264.16;5115754;28;20582;-80
2023/11/15 05:08:36;;;;;;;3.80;0.60;;;;;;;-145.69;63.04;52293.88;5115027;28;20229;-80
2023/11/15 05:11:05;;;;;;;6.18;0.77;;;;;;;-145.69;63.89;52305.75;5114355;28;20433;-79
2023/11/15 05:13:31;;;;;;;0.97;0.60;;;;;;;-145.69;63.30;52307.75;5097672;28;20190;-80
2023/11/15 05:15:59;;;;;;;0.87;0.70;;;;;;;-145.69;63.34;52305.75;5095329;28;20672;-79
2023/11/15 05:18:25;;;;;;;2.33;0.93;;;;;;;-145.69;63.21;52301.81;5113879;28;20562;-79
2023/11/15 05:20:52;;;;;;;7.83;1.20;;;;;;;-145.69;63.39;52297.84;5114869;28;20590;-79
2023/11/15 05:23:19;;;;;;;2.90;1.00;;;;;;;-145.69;63.53;52321.59;5112565;28;20313;-79
2023/11/15 05:25:47;;;;;;;4.00;1.10;;;;;;;-145.69;63.26;52305.75;5114866;28;20197;-80
2023/11/15 05:28:14;;;;;;;6.10;1.40;;;;;;;-145.69;63.48;52313.69;5115255;28;20293;-80
2023/11/15 05:30:41;;;;;;;5.40;1.00;;;;;;;-145.69;63.44;52289.91;5114912;28;20204;-80
2023/11/15 05:33:09;;;;;;;5.63;1.00;;;;;;;-145.69;63.59;52305.75;5115189;28;20204;-80
2023/11/15 05:35:35;;;;;;;4.23;0.87;;;;;;;-145.69;64.26;52321.59;5115058;28;20205;-80
2023/11/15 05:38:02;;;;;;;2.03;0.90;;;;;;;-145.69;63.49;52291.91;5114058;28;20198;-79
2023/11/15 05:40:28;;;;;;;5.33;0.93;;;;;;;-145.69;64.01;52305.75;5114921;28;20563;-79
2023/11/15 05:42:55;;;;;;;2.13;1.17;;;;;;;-145.69;64.78;52291.91;5113564;28;20271;-80
2023/11/15 05:45:21;;;;;;;4.03;0.90;;;;;;;-145.69;64.49;52293.88;5114989;28;20588;-80
2023/11/15 05:47:48;;;;;;;2.43;1.00;;;;;;;-145.69;64.78;52282.00;5112968;28;20739;-80
2023/11/15 05:50:16;;;;;;;3.97;1.10;;;;;;;-145.69;64.27;52258.22;5114772;28;20235;-80
2023/11/15 05:52:43;;;;;;;6.60;1.00;;;;;;;-145.69;63.85;52295.84;5114720;28;20205;-79
2023/11/15 05:55:11;;;;;;;4.33;1.00;;;;;;;-145.69;63.95;52333.47;5114115;28;20288;-79
2023/11/15 05:57:37;;;;;;;2.60;0.80;;;;;;;-145.69;63.90;52305.75;5113575;28;20193;-80
2023/11/15 06:00:10;;;;;;;4.87;1.20;;;;;;;-145.69;63.72;52329.53;5114460;28;20664;-80
2023/11/15 06:02:37;;;;;;;2.87;1.07;;;;;;;-145.69;63.41;52293.88;5114492;28;20718;-80
2023/11/15 06:05:04;;;;;;;6.73;1.30;;;;;;;-145.69;63.54;52317.66;5114327;28;20201;-80
2023/11/15 06:07:31;;;;;;;3.87;1.00;;;;;;;-145.69;63.41;52283.97;5114282;28;20233;-79
2023/11/15 06:09:58;;;;;;;2.97;1.10;;;;;;;-145.69;63.14;52321.59;5114055;28;20207;-79
2023/11/15 06:12:24;;;;;;;6.70;1.20;;;;;;;-145.69;63.17;52297.84;5114484;28;20202;-80
2023/11/15 06:14:51;;;;;;;2.50;0.90;;;;;;;-145.69;63.56;52325.56;5114297;28;20810;-80
2023/11/15 06:17:17;;;;;;;4.50;1.03;;;;;;;-145.69;62.97;52285.97;5114103;28;20194;-79
2023/11/15 06:19:43;;;;;;;6.07;0.87;;;;;;;-145.69;62.84;52321.59;5112675;28;20193;-80
2023/11/15 06:22:10;;;;;;;3.57;1.13;;;;;;;-145.69;63.24;52299.81;5113918;28;20217;-80
2023/11/15 06:24:42;;;;;;;3.20;1.17;;;;;;;-145.69;63.36;52242.38;5113896;28;20202;-81
2023/11/15 06:27:09;;;;;;;3.70;0.90;;;;;;;-145.69;63.14;52260.22;5114278;28;20208;-80
2023/11/15 06:29:35;;;;;;;3.77;1.30;;;;;;;-145.69;63.36;52309.72;5114055;28;20201;-81
2023/11/15 06:32:02;;;;;;;2.83;1.03;;;;;;;-145.69;63.83;52282.00;5112949;28;20209;-81
2023/11/15 06:34:29;;;;;;;3.53;1.20;;;;;;;-145.69;63.80;52329.53;5113960;28;20725;-81
2023/11/15 06:36:55;;;;;;;6.13;0.97;;;;;;;-145.69;63.86;52295.84;5113199;28;20189;-81
2023/11/15 06:39:23;;;;;;;4.30;1.13;;;;;;;-145.69;63.40;52297.84;5113439;28;20189;-81
2023/11/15 06:41:50;;;;;;;3.43;1.10;;;;;;;-145.69;63.24;52262.19;5113923;28;20201;-81
2023/11/15 06:44:17;;;;;;;7.37;1.70;;;;;;;-145.69;63.74;52321.59;5113308;28;20201;-81
2023/11/15 06:46:44;;;;;;;7.50;1.40;;;;;;;-145.69;63.26;52325.56;5113629;28;20193;-81
2023/11/15 06:49:11;;;;;;;6.43;1.03;;;;;;;-145.69;63.25;52295.84;5112423;28;20193;-81
2023/11/15 06:51:38;;;;;;;4.07;0.83;;;;;;;-145.69;63.56;52333.47;5113634;28;20198;-80
2023/11/15 06:54:05;;;;;;;4.07;1.30;;;;;;;-145.69;63.48;52307.75;5113615;28;20713;-81
2023/11/15 06:56:31;;;;;;;5.73;1.07;;;;;;;-145.69;63.46;52262.19;5113251;28;20671;-81
2023/11/15 06:58:59;;;;;;;5.13;1.43;;;;;;;-145.69;63.39;52303.78;5113386;28;20193;-80
2023/11/15 07:01:25;;;;;;;3.20;0.90;;;;;;;-145.69;63.40;52297.84;5113357;28;20204;-82
2023/11/15 07:03:54;;;;;;;1.63;0.87;;;;;;;-145.69;63.09;52317.66;5113705;28;20221;-81
2023/11/15 07:06:20;;;;;;;8.13;1.10;;;;;;;-145.69;63.51;52327.53;5112693;28;20284;-81
2023/11/15 07:08:47;;;;;;;8.83;1.43;;;;;;;-145.69;63.36;52282.00;5113642;28;20205;-81
2023/11/15 07:11:14;;;;;;;4.73;1.00;;;;;;;-145.69;63.09;52301.81;5111477;28;20372;-81
2023/11/15 07:13:40;;;;;;;4.90;1.10;;;;;;;-145.69;63.51;52319.63;5094188;28;20198;-80
2023/11/15 07:16:11;;;;;;;3.33;1.07;;;;;;;-145.69;62.70;52325.56;5093362;28;20213;-80
2023/11/15 07:18:37;;;;;;;3.43;0.87;;;;;;;-145.69;63.24;52339.44;5093791;28;20201;-81
2023/11/15 07:21:04;;;;;;;2.50;0.90;;;;;;;-145.69;62.57;52303.78;5112897;28;20197;-81
2023/11/15 07:23:32;;;;;;;3.37;0.97;;;;;;;-145.69;62.14;52287.94;5113210;28;20232;-81
2023/11/15 07:25:59;;;;;;;5.17;1.10;;;;;;;-145.69;62.24;52283.97;5113320;28;20293;-81
2023/11/15 07:28:26;;;;;;;2.60;1.10;;;;;;;-145.69;61.85;52295.84;5112895;28;20209;-80
2023/11/15 07:30:55;;;;;;;8.00;1.50;;;;;;;-145.69;62.15;52307.75;5112488;28;20197;-81
2023/11/15 07:33:23;;;;;;;1.60;1.47;;;;;;;-145.69;61.93;52285.97;5113144;28;20205;-81
2023/11/15 07:35:50;;;;;;;5.03;1.47;;;;;;;-145.69;62.24;52317.66;5112992;28;20194;-80
2023/11/15 07:38:16;;;;;;;3.37;1.30;;;;;;;-145.69;62.21;52285.97;5092870;28;20229;-80
2023/11/15 07:40:43;;;;;;;1.97;1.00;;;;;;;-145.69;62.04;52268.13;5092634;28;20204;-81
2023/11/15 07:43:10;;;;;;;2.50;1.40;;;;;;;-145.69;62.49;52319.63;5094833;28;20241;-80
2023/11/15 07:45:38;;;;;;;8.63;1.70;;;;;;;-145.69;61.71;52301.81;5096953;28;20217;-80
2023/11/15 07:48:06;;;;;;;3.17;1.13;;;;;;;-145.69;62.69;52317.66;5096698;28;20288;-80
2023/11/15 07:50:34;;;;;;;6.60;1.47;;;;;;;-145.69;62.90;52309.72;5113365;28;20189;-80
2023/11/15 07:53:01;;;;;;;7.87;1.30;;;;;;;-145.69;62.65;52297.84;5116775;28;20193;-80
2023/11/15 07:55:27;;;;;;;2.20;1.17;;;;;;;-145.69;62.58;52282.00;5116900;28;20204;-80
2023/11/15 07:57:54;;;;;;;4.90;1.50;;;;;;;-145.69;61.86;52317.66;5116913;28;20675;-80
2023/11/15 08:00:23;;;;;;;10.63;1.70;;;;;;;-145.69;62.17;52319.63;5117002;28;20209;-80
2023/11/15 08:02:51;;;;;;;2.97;1.23;;;;;;;-145.69;62.92;52305.75;5116997;28;20251;-80
2023/11/15 08:05:17;;;;;;;1.60;1.30;;;;;;;-145.69;62.76;52287.94;5116741;28;20198;-80
2023/11/15 08:07:45;;;;;;;3.77;1.20;;;;;;;-145.69;62.40;52270.13;5116106;28;20580;-80
2023/11/15 08:10:14;;;;;;;8.30;1.30;;;;;;;-145.69;62.12;52282.00;5116812;28;20197;-80
2023/11/15 08:12:41;;;;;;;5.37;1.30;;;;;;;-145.69;61.94;52293.88;5116312;28;20288;-79
2023/11/15 08:15:11;;;;;;;2.20;1.40;;;;;;;-145.69;61.67;52301.81;5116673;28;20204;-79
2023/11/15 08:17:37;;;;;;;3.40;1.00;;;;;;;-145.69;61.58;52305.75;5116288;28;20209;-80
2023/11/15 08:20:09;;;;;;;4.10;1.00;;;;;;;-145.69;61.27;52270.13;5116212;28;20201;-80
2023/11/15 08:22:36;;;;;;;5.20;1.33;;;;;;;-145.69;60.67;52282.00;5116161;28;20224;-80
2023/11/15 08:25:07;;;;;;;1.97;0.90;;;;;;;-145.69;61.59;52287.94;5116433;28;20284;-79
2023/11/15 08:27:35;;;;;;;4.23;1.00;;;;;;;-145.69;60.97;52295.84;5115483;28;20197;-79
2023/11/15 08:30:03;;;;;;;3.73;1.13;;;;;;;-145.69;61.08;52268.13;5116145;28;20198;-79
2023/11/15 08:32:31;;;;;;;2.07;0.93;;;;;;;-145.69;60.42;52295.84;5116400;28;20198;-79
2023/11/15 08:34:58;;;;;;;4.17;0.90;;;;;;;-145.69;60.20;52270.13;5116281;28;20205;-80
2023/11/15 08:37:25;;;;;;;4.13;0.90;;;;;;;-145.69;60.11;52293.88;5116435;28;20201;-79
2023/11/15 08:39:51;;;;;;;7.67;0.90;;;;;;;-145.69;60.52;52301.81;5115916;28;20205;-80
2023/11/15 08:42:19;;;;;;;1.53;0.90;;;;;;;-145.69;60.63;52285.97;5116222;28;20208;-81
2023/11/15 08:44:47;;;;;;;7.07;1.27;;;;;;;-145.69;60.56;52282.00;5115783;28;20205;-79
2023/11/15 08:47:13;;;;;;;4.67;0.97;;;;;;;-145.69;60.97;52289.91;5115837;28;20208;-81
2023/11/15 08:49:40;;;;;;;3.40;1.10;;;;;;;-145.69;60.99;52317.66;5115852;28;20193;-80
2023/11/15 08:52:09;;;;;;;2.70;1.00;;;;;;;-145.69;60.00;52301.81;5115781;28;20288;-80
2023/11/15 08:54:37;;;;;;;4.80;0.90;;;;;;;-145.69;59.69;52266.16;5112038;28;20224;-80
2023/11/15 08:57:03;;;;;;;2.00;0.70;;;;;;;-145.69;58.95;52266.16;5115667;28;20716;-80
2023/11/15 08:59:35;;;;;;;4.80;1.13;;;;;;;-145.69;58.71;52283.97;5115792;28;20197;-82
2023/11/15 09:02:02;;;;;;;2.53;1.10;;;;;;;-145.69;58.52;52282.00;5116327;28;20622;-80
2023/11/15 09:04:34;;;;;;;4.18;1.00;;;;;;;-145.69;58.45;52258.22;5115776;28;20236;-80
2023/11/15 09:07:00;;;;;;;4.07;1.00;;;;;;;-145.69;57.93;52293.88;5115452;28;20229;-79
2023/11/15 09:09:27;;;;;;;3.03;0.83;;;;;;;-145.69;57.08;52270.13;5113578;28;20221;-80
2023/11/15 09:11:56;;;;;;;3.58;0.90;;;;;;;-145.69;56.07;52270.13;5115464;28;20220;-80
2023/11/15 09:14:23;;;;;;;2.90;0.85;;;;;;;-145.69;55.77;52252.28;5114741;28;20201;-79
2023/11/15 09:16:51;;;;;;;4.07;0.77;;;;;;;-145.69;55.59;52282.00;5115108;28;20204;-79
2023/11/15 09:19:20;;;;;;;2.08;0.70;;;;;;;-145.69;55.46;52266.16;5114944;28;20354;-80
2023/11/15 09:21:47;;;;;;;3.00;0.80;;;;;;;-145.69;55.54;52234.47;5115485;28;20208;-80
2023/11/15 09:24:21;;;;;;;1.60;0.77;;;;;;;-145.69;55.52;52258.22;5115107;28;20252;-81
2023/11/15 09:26:48;;;;;;;3.00;0.80;;;;;;;-145.69;55.46;52258.22;5116017;28;20197;-79
2023/11/15 09:29:15;;;;;;;3.55;0.88;;;;;;;-145.69;55.88;52282.00;5115511;28;20888;-79
2023/11/15 09:31:43;;;;;;;3.30;0.80;;;;;;;-145.69;55.79;52250.31;5115417;28;20213;-79
2023/11/15 09:34:12;;;;;;;3.38;1.00;;;;;;;-145.69;55.82;52270.13;5115031;28;20686;-79
2023/11/15 09:36:38;;;;;;;2.63;1.17;;;;;;;-145.69;55.67;52248.34;5115417;28;20345;-80
2023/11/15 09:39:07;;;;;;;2.08;0.60;;;;;;;-145.69;54.63;52250.31;5115115;28;20202;-79
2023/11/15 09:41:33;;;;;;;1.52;0.88;;;;;;;-145.69;55.30;52244.38;5114862;28;20701;-79
2023/11/15 09:44:08;;;;;;;2.58;0.60;;;;;;;-145.69;54.95;52272.09;5114841;28;20768;-80
2023/11/15 09:46:37;;;;;;;2.50;0.68;;;;;;;-145.69;54.52;52254.28;5114440;28;20205;-81
2023/11/15 09:49:05;;;;;;;2.88;0.70;;;;;;;-145.69;54.37;52266.16;5114205;28;20208;-79
2023/11/15 09:51:34;;;;;;;8.63;0.60;;;;;;;-145.69;52.63;52252.28;5094222;28;20198;-81
2023/11/15 09:54:06;;;;;;;2.25;0.80;;;;;;;-145.69;53.26;52226.53;5104532;28;20288;-79
2023/11/15 09:56:34;;;;;;;3.58;0.80;;;;;;;-145.69;52.79;52236.44;5114508;28;20278;-80
2023/11/15 09:59:00;;;;;;;2.17;0.57;;;;;;;-145.69;52.77;52242.38;5114794;28;20248;-82
2023/11/15 10:01:27;;;;;;;3.00;0.82;;;;;;;-145.69;52.84;52246.34;5114504;28;20193;-83
2023/11/15 10:03:53;;;;;;;4.22;0.93;;;;;;;-145.69;53.04;52222.59;5098914;28;20253;-81
2023/11/15 10:06:20;;;;;;;4.00;0.70;;;;;;;-145.69;53.07;52236.44;5111717;28;20197;-82
2023/11/15 10:08:53;;;;;;;2.60;0.90;;;;;;;-145.69;53.12;52246.34;5114510;28;20201;-81
2023/11/15 10:11:21;;;;;;;4.60;0.70;;;;;;;-145.69;52.34;52236.44;5115013;28;20193;-79
2023/11/15 10:13:51;;;;;;;2.05;0.60;;;;;;;-145.69;53.00;52224.56;5114484;28;20557;-79
2023/11/15 10:16:23;;;;;;;4.60;0.82;;;;;;;-145.69;51.84;52240.41;5114073;28;20194;-79
2023/11/15 10:18:50;;;;;;;5.30;0.82;;;;;;;-145.69;50.81;52238.44;5112627;28;20196;-80
2023/11/15 10:21:19;;;;;;;7.03;1.13;;;;;;;-145.69;51.10;52240.41;5113890;28;20197;-79
2023/11/15 10:23:46;;;;;;;3.08;0.82;;;;;;;-145.69;50.56;52194.88;5113938;28;20221;-80
2023/11/15 10:26:14;;;;;;;2.10;0.68;;;;;;;-145.69;49.71;52244.38;5113357;28;20451;-81
2023/11/15 10:28:41;;;;;;;6.35;0.80;;;;;;;-145.69;49.87;52238.44;5113978;28;20193;-80
2023/11/15 10:31:12;;;;;;;3.42;0.95;;;;;;;-145.69;51.19;52220.59;5113877;28;20189;-80
2023/11/15 10:33:43;;;;;;;1.40;0.57;;;;;;;-145.69;51.01;52236.44;5113880;28;20216;-80
2023/11/15 10:36:16;;;;;;;3.78;0.68;;;;;;;-145.69;50.35;52222.59;5113375;28;20193;-81
2023/11/15 10:38:44;;;;;;;3.55;0.60;;;;;;;-145.69;49.96;52208.72;5113802;28;20200;-81
2023/11/15 10:41:17;;;;;;;3.55;0.95;;;;;;;-145.69;50.17;52246.34;5113520;28;20641;-80
2023/11/15 10:43:45;;;;;;;3.75;0.68;;;;;;;-145.69;50.24;52242.38;5112357;28;20266;-80
2023/11/15 10:46:15;;;;;;;3.03;0.65;;;;;;;-145.69;50.01;52226.53;5114583;28;20647;-81
2023/11/15 10:48:45;;;;;;;1.73;0.70;;;;;;;-145.69;49.78;52218.63;5114354;28;20201;-81
2023/11/15 10:51:19;;;;;;;3.92;0.73;;;;;;;-145.69;49.02;52234.47;5114249;28;20203;-81
2023/11/15 10:53:46;;;;;;;0.57;0.40;;;;;;;-145.69;49.92;52202.78;5113512;28;20200;-80
2023/11/15 10:56:16;;;;;;;2.08;0.60;;;;;;;-145.69;49.17;52230.50;5113201;28;20695;-81
2023/11/15 10:58:45;;;;;;;4.95;0.60;;;;;;;-145.69;49.39;52210.72;5113867;28;20205;-83
2023/11/15 11:01:16;;;;;;;5.25;0.60;;;;;;;-145.69;48.76;52194.88;5113292;28;20194;-82
2023/11/15 11:03:44;;;;;;;3.03;0.60;;;;;;;-145.69;47.36;52210.72;5113636;28;20229;-83
2023/11/15 11:06:18;;;;;;;4.15;0.60;;;;;;;-145.69;48.34;52214.66;5113484;28;20263;-83
2023/11/15 11:08:54;;;;;;;2.20;0.60;;;;;;;-145.69;48.29;52222.59;5114335;28;20292;-80
2023/11/15 11:11:29;;;;;;;1.08;0.50;;;;;;;-145.69;47.92;52181.00;5115484;28;20272;-83
2023/11/15 11:14:26;;;;;;;3.08;0.60;;;;;;;-145.69;47.77;52222.59;5115180;28;20207;-83
2023/11/15 11:16:54;;;;;;;5.10;0.70;;;;;;;-145.69;47.78;52194.88;5078959;28;20208;-84
2023/11/15 11:19:22;;;;;;;5.07;0.57;;;;;;;-145.69;48.09;52202.78;5104166;28;20247;-83